Terminal Aerodrome Forecast
Issued by NWS Bismarck, ND

Home | Current Version | Previous Version | Text Only | Print | Product List | Glossary On
Versions: 1 2 3 4 5 6 7 8 9 10 11 12 13 14 15 16 17 18 19 20
000
FTUS43 KBIS 220800 AAA
TAFISN
TAF AMD
KISN 220805Z 2208/2306 02007KT 6SM BR VCSH OVC030
     FM221200 04008KT 3SM -SHRA BR VCTS OVC012CB
     FM221500 04008KT 4SM BR VCTS OVC015CB=

USA.gov is the U.S. government's official web portal to all federal, state and local government web resources and services.